• Join FlightAware (Why Join?)
  • Login
  • US Flag 
08:05AM EDT


 

Airport Tracker/Info


-or-


 

Live Flight TrackerFlight Track Log ✈ EJA922 ✈ 22-Nov-2013 ✈ KBHM - KTEB

Flight Track Log - Related Links

Times and Time Zones

All times are in EST time to prevent confusion due to time zone crossing. See the EJA922 flight status page for this flight to view local times or setup timezone preferences in your user account.

Time Position Orientation Groundspeed Altitude Reporting Facility
EST Latitude Longitude Course Direction KTS MPH feet Rate Location/Type
12:14PM 33.5683 -86.7464 52° Northeast 175 201 1,700  Level Atlanta Center
12:14PM 33.5814 -86.7267 52° Northeast 193 222 2,900 3,300 Climbing Atlanta Center
12:15PM 33.6031 -86.6850 58° Northeast 261 300 4,900 3,900 Climbing Atlanta Center
12:15PM 33.6203 -86.6531 57° Northeast 289 333 6,900 3,480 Climbing Atlanta Center
12:16PM 33.6681 -86.5672 56° Northeast 314 361 10,000 1,980 Climbing Atlanta Center
12:17PM 33.6986 -86.5083 58° Northeast 352 405 10,000 1,020 Level Atlanta Center
12:18PM 33.7592 -86.3975 57° Northeast 366 421 11,600 1,980 Climbing Atlanta Center
12:19PM 33.8175 -86.2867 58° Northeast 389 448 14,000 2,400 Climbing Atlanta Center
12:20PM 33.8781 -86.1706 58° Northeast 401 461 16,500 2,340 Climbing Atlanta Center
12:21PM 33.9447 -86.0619 53° Northeast 401 461 18,700 2,100 Climbing Atlanta Center
12:22PM 34.0378 -85.9817 36° Northeast 400 460 20,800 2,100 Climbing Atlanta Center
12:23PM 34.1269 -85.8883 41° Northeast 405 466 23,000 2,340 Climbing Atlanta Center
12:24PM 34.1456 -85.7506 81° East 385 443 25,500 2,280 Climbing Atlanta Center
12:25PM 34.2056 -85.6389 57° Northeast 387 445 27,600 1,800 Climbing Atlanta Center
12:26PM 34.2986 -85.5450 40° Northeast 412 474 29,200 1,200 Climbing Atlanta Center
12:27PM 34.3894 -85.4536 40° Northeast 436 502 30,100 960 Climbing Atlanta Center
12:28PM 34.4886 -85.3517 40° Northeast 450 518 31,200 1,020 Climbing Atlanta Center
12:29PM 34.5981 -85.2425 39° Northeast 480 552 32,200 960 Climbing Atlanta Center
12:30PM 34.7097 -85.1303 40° Northeast 505 581 33,200 900 Climbing Atlanta Center
12:31PM 34.8236 -85.0103 41° Northeast 521 600 34,100 900 Climbing Atlanta Center
12:32PM 34.9392 -84.8953 39° Northeast 533 613 35,100 1,260 Climbing Atlanta Center
12:33PM 35.0547 -84.7772 40° Northeast 533 613 36,700 1,620 Climbing Atlanta Center
12:34PM 35.1764 -84.6436 42° Northeast 533 613 38,400 1,800 Climbing Atlanta Center
12:35PM 35.2772 -84.5144 46° Northeast 522 601 40,300 1,260 Climbing Atlanta Center
12:36PM 35.3756 -84.3853 47° Northeast 517 595 41,000 300 Climbing Atlanta Center
12:37PM 35.4781 -84.2556 46° Northeast 512 589 41,000  Level Atlanta Center
12:38PM 35.5764 -84.1281 47° Northeast 512 589 41,000  Level Atlanta Center
12:39PM 35.6767 -83.9978 47° Northeast 512 589 41,000  Level Atlanta Center
12:40PM 35.7725 -83.8697 47° Northeast 512 589 41,000  Level Atlanta Center
12:41PM 35.8722 -83.7414 46° Northeast 512 589 41,000  Level Atlanta Center
12:42PM 35.9700 -83.6128 47° Northeast 512 589 41,000  Level Atlanta Center
12:43PM 36.0592 -83.4942 47° Northeast 512 589 41,000  Level Atlanta Center
12:44PM 36.1564 -83.3625 48° Northeast 512 589 41,000  Level Atlanta Center
12:45PM 36.2539 -83.2328 47° Northeast 518 596 41,000  Level Atlanta Center
12:46PM 36.3508 -83.1003 48° Northeast 518 596 41,000  Level Atlanta Center
12:47PM 36.4842 -82.9233 47° Northeast 530 610 41,000  Level Indianapolis Center
12:48PM 36.5836 -82.7894 47° Northeast 537 618 41,000  Level Indianapolis Center
12:49PM 36.6819 -82.6569 47° Northeast 532 612 41,000  Level Indianapolis Center
12:50PM 36.7789 -82.5236 48° Northeast 528 608 41,000  Level Indianapolis Center
12:51PM 36.8917 -82.3683 48° Northeast 524 603 41,000  Level Indianapolis Center
12:52PM 36.9875 -82.2350 48° Northeast 519 597 41,000  Level Indianapolis Center
12:53PM 37.0831 -82.0961 49° Northeast 526 605 41,000  Level Indianapolis Center
12:54PM 37.1383 -81.9119 69° East 561 646 41,000  Level Indianapolis Center
12:55PM 37.1850 -81.7231 73° East 571 657 41,000  Level Indianapolis Center
12:56PM 37.2331 -81.5325 72° East 572 658 41,000  Level Indianapolis Center
12:57PM 37.2886 -81.3122 72° East 567 652 41,000  Level Indianapolis Center
12:58PM 37.3342 -81.1214 73° East 570 656 41,000  Level Indianapolis Center
12:59PM 37.3803 -80.9286 73° East 573 659 41,000  Level Indianapolis Center
01:00PM 37.4269 -80.7383 73° East 571 657 41,000  Level Indianapolis Center
01:01PM 37.4711 -80.5469 74° East 570 656 41,000  Level Indianapolis Center
01:03PM 37.5178 -80.3564 73° East 570 656 41,000  Level Indianapolis Center
01:04PM 37.5631 -80.1572 74° East 569 655 41,000  Level Indianapolis Center
01:05PM 37.6122 -79.9492 73° East 565 650 41,000  Level Washington Center
01:06PM 37.6589 -79.7550 73° East 565 650 41,000  Level Washington Center
01:07PM 37.6981 -79.5864 74° East 565 650 41,000  Level Washington Center
01:08PM 37.7467 -79.3736 74° East 567 652 41,000  Level Washington Center
01:09PM 37.7881 -79.1814 75° East 567 652 41,000  Level Washington Center
01:10PM 37.8311 -78.9914 74° East 567 652 41,000  Level Washington Center
01:11PM 37.8719 -78.7986 75° East 567 652 41,000  Level Washington Center
01:12PM 37.9097 -78.6264 74° East 558 642 41,000  Level Washington Center
01:13PM 37.9519 -78.4333 74° East 563 648 41,000  Level Washington Center
01:14PM 37.9939 -78.2425 74° East 563 648 41,000  Level Washington Center
01:15PM 38.0517 -78.0706 67° East 548 631 41,000  Level Washington Center
01:16PM 38.1319 -77.9122 57° Northeast 529 609 41,000  Level Washington Center
01:17PM 38.2100 -77.7558 58° Northeast 523 602 41,000  Level Washington Center
01:18PM 38.2964 -77.5811 58° Northeast 532 612 41,000  Level Washington Center
01:19PM 38.3742 -77.4244 58° Northeast 532 612 41,000  Level Washington Center
01:20PM 38.4514 -77.2700 57° Northeast 527 606 41,000  Level Washington Center
01:21PM 38.5431 -77.1258 51° Northeast 522 601 41,000 -1,140 Level Washington Center
01:22PM 38.6364 -76.9897 49° Northeast 511 588 38,800 -2,520 Descending Washington Center
01:23PM 38.7339 -76.8478 49° Northeast 516 594 36,000 -2,820 Descending Washington Center
01:24PM 38.8311 -76.7056 49° Northeast 527 606 33,100 -3,000 Descending Washington Center
01:25PM 38.9303 -76.5550 50° Northeast 539 620 30,200 -3,000 Descending Washington Center
01:26PM 39.0314 -76.4067 49° Northeast 544 626 27,300 -2,820 Descending Washington Center
01:27PM 39.1261 -76.2631 50° Northeast 544 626 24,500 -1,680 Descending Washington Center
01:28PM 39.2225 -76.1517 42° Northeast 528 608 24,000 -300 Descending Washington Center
01:29PM 39.3314 -76.0369 39° Northeast 515 593 24,000 -1,980 Level Washington Center
01:31PM 39.5833 -75.7833 38° Northeast 460 529 17,800 -2,760 Descending Philadelphia TRACON
01:32PM 39.6833 -75.7000 33° Northeast 457 526 15,200 -2,400 Descending Philadelphia TRACON
01:33PM 39.7833 -75.6000 38° Northeast 428 493 13,100 -1,080 Descending Philadelphia TRACON
01:34PM 39.9000 -75.5000 33° Northeast 435 501 13,000 -60 Descending Philadelphia TRACON
01:35PM 40.0000 -75.4167 33° Northeast 443 510 13,000  Level Philadelphia TRACON
01:36PM 40.1000 -75.3167 37° Northeast 444 511 13,000 -420 Level Philadelphia TRACON
01:37PM 40.2000 -75.2333 32° Northeast 406 467 12,200 -1,500 Descending Philadelphia TRACON
01:39PM 40.3667 -75.0667 37° Northeast 309 356 8,000 -1,740 Descending New York TRACON
01:40PM 40.4167 -74.9833 52° Northeast 299 344 6,400 -1,680 Descending New York TRACON
01:41PM 40.4667 -74.9000 52° Northeast 289 333 4,700 -1,320 Descending New York TRACON
01:42PM 40.5167 -74.8333 45° Northeast 286 329 4,000 -420 Descending New York TRACON
01:43PM 40.5667 -74.7500 52° Northeast 280 322 4,000  Level New York TRACON
01:44PM 40.6333 -74.7000 30° Northeast 267 307 4,000  Level New York TRACON
01:45PM 40.7000 -74.6333 37° Northeast 269 310 4,000 -480 Level New York TRACON
01:46PM 40.7500 -74.5833 37° Northeast 265 305 3,100 -540 Descending New York TRACON
01:47PM 40.8167 -74.5333 30° Northeast 264 304 3,000 -60 Descending New York TRACON
01:48PM 40.8833 -74.4833 30° Northeast 267 307 3,000  Level New York TRACON
01:49PM 40.9333 -74.4000 52° Northeast 269 310 3,000  Level New York TRACON
01:50PM 40.9667 -74.3167 62° Northeast 265 305 3,000 -120 Level New York TRACON
01:51PM 40.9833 -74.2333 75° East 242 278 2,800 -540 Descending New York TRACON
01:52PM 41.0000 -74.1667 72° East 214 246 2,000 -420 Descending New York TRACON
01:53PM 41.0000 -74.0833 90° East 223 257 2,000  Level New York TRACON
01:54PM 40.9500 -74.0500 153° Southeast 202 232 2,000 -420 Level New York TRACON
01:55PM 40.9167 -74.0500 180° South 164 189 1,200 -840 Descending New York TRACON
01:56PM 40.8667 -74.0500 180° South 126 145 400 -840 Descending New York TRACON
01:58PM 40.8500 -74.0500 180° South  Level FlightAware Approximate